Time;durP1;ratioP1;P1;durP2;ratioP2;P2;SDS_P1;SDS_P2;PMS_P1;PMS_P2;Temp;Humidity;BMP_temperature;BMP_pressure;BME280_temperature;BME280_humidity;BME280_pressure;Samples;Min_cycle;Max_cycle;Signal;HPM_P1;HPM_P2
2023/05/02 00:00:32;;;;;;;;;;;17.80;63.60;;;;;;4992705;28;1272;-71
2023/05/02 00:02:57;;;;;;;;;;;17.80;63.70;;;;;;4995484;28;1385;-70
2023/05/02 00:05:22;;;;;;;;;;;17.70;63.60;;;;;;4996193;28;1376;-70
2023/05/02 00:07:48;;;;;;;;;;;17.70;63.60;;;;;;4995618;28;1361;-70
2023/05/02 00:10:13;;;;;;;;;;;17.70;63.60;;;;;;4992798;28;1388;-71
2023/05/02 00:12:48;;;;;;;;;;;17.70;63.70;;;;;;4995012;28;1910;-71
2023/05/02 00:15:17;;;;;;;;;;;17.70;63.70;;;;;;4996925;28;1296;-71
2023/05/02 00:17:48;;;;;;;;;;;17.70;63.70;;;;;;4979520;28;1351;-71
2023/05/02 00:20:36;;;;;;;;;;;17.70;63.70;;;;;;4977490;28;991;-70
2023/05/02 00:23:02;;;;;;;;;;;17.70;63.70;;;;;;4989725;28;1249;-72
2023/05/02 00:25:38;;;;;;;;;;;17.70;63.70;;;;;;4979976;28;1413;-71
2023/05/02 00:28:03;;;;;;;;;;;17.70;63.80;;;;;;4992855;28;1446;-70
2023/05/02 00:30:29;;;;;;;;;;;17.70;63.80;;;;;;4992953;28;1018;-70
2023/05/02 00:32:54;;;;;;;;;;;17.70;63.80;;;;;;4996010;28;1902;-71
2023/05/02 00:35:20;;;;;;;;;;;17.70;63.80;;;;;;4995147;28;1723;-71
2023/05/02 00:37:45;;;;;;;;;;;17.70;63.80;;;;;;4994098;28;1011;-70
2023/05/02 00:40:11;;;;;;;;;;;17.70;63.80;;;;;;4995469;28;934;-70
2023/05/02 00:42:37;;;;;;;;;;;17.70;63.80;;;;;;4994491;28;871;-71
2023/05/02 00:45:05;;;;;;;;;;;17.70;63.90;;;;;;4993205;28;1320;-70
2023/05/02 00:47:31;;;;;;;;;;;17.70;63.90;;;;;;4993053;28;856;-70
2023/05/02 00:49:57;;;;;;;;;;;17.70;63.90;;;;;;4992197;28;982;-72
2023/05/02 00:52:23;;;;;;;;;;;17.70;63.90;;;;;;4990089;28;1906;-71
2023/05/02 00:54:48;;;;;;;;;;;17.70;63.90;;;;;;4991845;28;1284;-70
2023/05/02 00:57:14;;;;;;;;;;;17.70;63.90;;;;;;4991364;28;875;-71
2023/05/02 00:59:40;;;;;;;;;;;17.70;64.00;;;;;;4991848;28;1501;-71
2023/05/02 01:02:10;;;;;;;;;;;17.70;64.00;;;;;;4992219;28;861;-70
2023/05/02 01:04:38;;;;;;;;;;;17.70;64.00;;;;;;4994664;28;1378;-71
2023/05/02 01:07:22;;;;;;;;;;;17.70;64.00;;;;;;4994546;28;897;-71
2023/05/02 01:10:06;;;;;;;;;;;17.70;64.00;;;;;;4992850;28;832;-71
2023/05/02 01:12:32;;;;;;;;;;;17.70;64.10;;;;;;4993264;28;1898;-71
2023/05/02 01:14:57;;;;;;;;;;;17.70;64.10;;;;;;4993612;28;1352;-71
2023/05/02 01:17:27;;;;;;;;;;;17.70;64.10;;;;;;4992672;28;820;-71
2023/05/02 01:19:57;;;;;;;;;;;17.70;64.10;;;;;;4994002;28;810;-71
2023/05/02 01:22:23;;;;;;;;;;;17.70;64.10;;;;;;4992011;28;827;-71
2023/05/02 01:25:07;;;;;;;;;;;17.70;64.10;;;;;;4992467;28;1361;-71
2023/05/02 01:27:35;;;;;;;;;;;17.70;64.10;;;;;;4997533;28;876;-70
2023/05/02 01:30:01;;;;;;;;;;;17.70;64.10;;;;;;4993936;28;893;-70
2023/05/02 01:32:26;;;;;;;;;;;17.70;64.20;;;;;;4995881;28;1894;-70
2023/05/02 01:34:52;;;;;;;;;;;17.70;64.20;;;;;;4990743;28;1295;-70
2023/05/02 01:37:17;;;;;;;;;;;17.70;64.20;;;;;;4994712;28;801;-71
2023/05/02 01:39:43;;;;;;;;;;;17.70;64.20;;;;;;4992006;28;1344;-71
2023/05/02 01:42:08;;;;;;;;;;;17.70;65.00;;;;;;4992407;28;920;-70
2023/05/02 01:44:34;;;;;;;;;;;17.70;64.20;;;;;;4992322;28;1311;-70
2023/05/02 01:47:00;;;;;;;;;;;17.70;64.20;;;;;;4994393;28;832;-71
2023/05/02 01:49:26;;;;;;;;;;;17.70;64.30;;;;;;4997176;28;856;-71
2023/05/02 01:51:51;;;;;;;;;;;17.70;64.30;;;;;;4978595;28;1977;-71
2023/05/02 01:54:17;;;;;;;;;;;17.70;64.30;;;;;;4994251;28;1265;-70
2023/05/02 01:56:43;;;;;;;;;;;17.70;64.30;;;;;;4992747;28;912;-71
2023/05/02 01:59:10;;;;;;;;;;;17.70;64.30;;;;;;4990107;28;852;-71
2023/05/02 02:01:35;;;;;;;;;;;17.70;64.30;;;;;;4992674;28;1403;-71
2023/05/02 02:04:01;;;;;;;;;;;17.70;64.30;;;;;;4995053;28;1558;-71
2023/05/02 02:06:26;;;;;;;;;;;17.70;64.40;;;;;;4999068;28;979;-70
2023/05/02 02:08:52;;;;;;;;;;;17.70;64.40;;;;;;5002363;28;848;-70
2023/05/02 02:11:25;;;;;;;;;;;17.60;64.40;;;;;;4993585;28;1560;-72
2023/05/02 02:13:52;;;;;;;;;;;17.70;64.40;;;;;;4993025;28;1962;-71
2023/05/02 02:16:18;;;;;;;;;;;17.70;64.40;;;;;;4992434;28;1327;-71
2023/05/02 02:18:43;;;;;;;;;;;17.70;64.50;;;;;;4992310;28;1492;-71
2023/05/02 02:21:09;;;;;;;;;;;17.70;64.40;;;;;;4994854;28;2442;-71
2023/05/02 02:23:35;;;;;;;;;;;17.70;64.40;;;;;;4991369;28;1292;-71
2023/05/02 02:26:01;;;;;;;;;;;17.70;64.50;;;;;;4993016;28;1423;-71
2023/05/02 02:28:27;;;;;;;;;;;17.70;64.50;;;;;;4995986;28;1409;-72
2023/05/02 02:30:52;;;;;;;;;;;17.80;64.70;;;;;;4992588;28;1296;-70
2023/05/02 02:33:17;;;;;;;;;;;17.80;64.60;;;;;;4993610;28;1988;-71
2023/05/02 02:35:44;;;;;;;;;;;17.80;64.60;;;;;;4989729;28;1643;-71
2023/05/02 02:38:28;;;;;;;;;;;17.90;64.80;;;;;;4994482;28;1408;-71
2023/05/02 02:40:58;;;;;;;;;;;17.90;64.70;;;;;;4995573;28;1280;-71
2023/05/02 02:43:30;;;;;;;;;;;17.90;64.70;;;;;;4987572;28;1323;-71
2023/05/02 02:46:13;;;;;;;;;;;17.90;64.70;;;;;;4994045;28;1442;-70
2023/05/02 02:48:42;;;;;;;;;;;17.90;64.80;;;;;;4994430;28;1374;-71
2023/05/02 02:51:21;;;;;;;;;;;17.90;65.00;;;;;;4995078;28;1414;-71
2023/05/02 02:53:46;;;;;;;;;;;18.00;65.10;;;;;;4990241;28;1907;-71
2023/05/02 02:56:16;;;;;;;;;;;17.90;65.00;;;;;;4990459;28;1603;-71
2023/05/02 02:58:44;;;;;;;;;;;18.00;65.10;;;;;;4993694;28;1318;-71
2023/05/02 03:01:11;;;;;;;;;;;18.00;65.20;;;;;;4992265;28;893;-71
2023/05/02 03:03:36;;;;;;;;;;;18.00;65.20;;;;;;4992220;28;1544;-71
2023/05/02 03:06:02;;;;;;;;;;;18.00;65.30;;;;;;4992825;28;1369;-72
2023/05/02 03:08:28;;;;;;;;;;;17.90;65.40;;;;;;4992174;28;1074;-71
2023/05/02 03:10:53;;;;;;;;;;;18.00;65.50;;;;;;4995197;28;1552;-71
2023/05/02 03:13:19;;;;;;;;;;;18.00;65.60;;;;;;4990876;28;1915;-71
2023/05/02 03:15:50;;;;;;;;;;;18.00;65.60;;;;;;4997548;28;1378;-72
2023/05/02 03:18:16;;;;;;;;;;;18.00;65.60;;;;;;4995088;28;1323;-72
2023/05/02 03:20:41;;;;;;;;;;;17.90;65.60;;;;;;4998238;28;1517;-72
2023/05/02 03:23:07;;;;;;;;;;;17.90;65.70;;;;;;4978822;28;1365;-71
2023/05/02 03:25:33;;;;;;;;;;;17.90;65.80;;;;;;4989960;28;1363;-71
2023/05/02 03:27:58;;;;;;;;;;;18.00;66.10;;;;;;4996320;28;820;-72
2023/05/02 03:30:24;;;;;;;;;;;18.00;66.10;;;;;;4994832;28;892;-72
2023/05/02 03:32:49;;;;;;;;;;;18.00;66.20;;;;;;4992386;28;1891;-71
2023/05/02 03:35:15;;;;;;;;;;;18.00;66.10;;;;;;4995587;28;1505;-72
2023/05/02 03:37:41;;;;;;;;;;;18.00;66.10;;;;;;5000584;28;1362;-71
2023/05/02 03:40:06;;;;;;;;;;;18.00;66.20;;;;;;4995270;28;922;-71
2023/05/02 03:42:38;;;;;;;;;;;18.00;66.10;;;;;;4994521;28;1003;-72
2023/05/02 03:45:04;;;;;;;;;;;18.00;66.20;;;;;;4994602;28;1300;-71
2023/05/02 03:47:30;;;;;;;;;;;18.00;66.20;;;;;;4998082;28;843;-72
2023/05/02 03:49:56;;;;;;;;;;;18.10;66.20;;;;;;4991683;28;852;-72
2023/05/02 03:52:22;;;;;;;;;;;18.10;66.40;;;;;;4993435;28;1960;-72
2023/05/02 03:54:47;;;;;;;;;;;18.00;66.40;;;;;;4994149;28;1257;-71
2023/05/02 03:57:13;;;;;;;;;;;18.10;66.60;;;;;;4996111;28;922;-72
2023/05/02 03:59:40;;;;;;;;;;;18.00;66.50;;;;;;4995787;28;832;-71
2023/05/02 04:02:06;;;;;;;;;;;18.00;66.60;;;;;;4996045;28;1136;-72
2023/05/02 04:04:31;;;;;;;;;;;18.00;66.70;;;;;;4994371;28;1375;-72
2023/05/02 04:06:56;;;;;;;;;;;18.00;66.80;;;;;;4992186;28;1010;-72
2023/05/02 04:09:24;;;;;;;;;;;18.00;66.80;;;;;;4992856;28;792;-73
2023/05/02 04:11:49;;;;;;;;;;;18.00;66.70;;;;;;4990294;28;1902;-73
2023/05/02 04:14:15;;;;;;;;;;;18.10;66.90;;;;;;4985554;28;1240;-72
2023/05/02 04:16:40;;;;;;;;;;;18.10;66.80;;;;;;4996550;28;930;-73
2023/05/02 04:19:06;;;;;;;;;;;18.10;66.80;;;;;;4994693;28;1447;-72
2023/05/02 04:21:31;;;;;;;;;;;18.10;66.80;;;;;;4990652;28;813;-72
2023/05/02 04:23:57;;;;;;;;;;;18.20;66.70;;;;;;4992449;28;1272;-73
2023/05/02 04:26:23;;;;;;;;;;;18.20;66.60;;;;;;4996835;28;927;-72
2023/05/02 04:28:48;;;;;;;;;;;18.20;66.40;;;;;;4999477;28;887;-71
2023/05/02 04:31:14;;;;;;;;;;;18.30;66.40;;;;;;4989837;28;873;-71
2023/05/02 04:33:39;;;;;;;;;;;18.30;66.40;;;;;;4999070;28;1958;-71
2023/05/02 04:36:05;;;;;;;;;;;18.30;66.30;;;;;;4993689;28;884;-71
2023/05/02 04:38:30;;;;;;;;;;;18.40;66.30;;;;;;4999457;28;1025;-71
2023/05/02 04:40:56;;;;;;;;;;;18.40;66.20;;;;;;4996380;28;1469;-72
2023/05/02 04:43:21;;;;;;;;;;;18.40;66.20;;;;;;4999117;28;892;-71
2023/05/02 04:45:46;;;;;;;;;;;18.50;66.10;;;;;;4996485;28;1249;-71
2023/05/02 04:48:12;;;;;;;;;;;18.50;66.00;;;;;;4997749;28;872;-71
2023/05/02 04:50:38;;;;;;;;;;;18.50;66.00;;;;;;4993741;28;869;-71
2023/05/02 04:53:03;;;;;;;;;;;18.60;66.00;;;;;;4994181;28;1906;-71
2023/05/02 04:55:29;;;;;;;;;;;18.60;65.90;;;;;;4997030;28;1229;-71
2023/05/02 04:57:54;;;;;;;;;;;18.60;65.90;;;;;;4993185;28;935;-71
2023/05/02 05:00:20;;;;;;;;;;;18.60;65.80;;;;;;4991160;28;896;-71
2023/05/02 05:02:46;;;;;;;;;;;18.60;65.80;;;;;;4998302;28;837;-72
2023/05/02 05:05:11;;;;;;;;;;;18.60;65.80;;;;;;4999611;28;1279;-71
2023/05/02 05:07:37;;;;;;;;;;;18.60;65.70;;;;;;4995385;28;804;-71
2023/05/02 05:10:02;;;;;;;;;;;18.60;65.70;;;;;;4993910;28;1057;-71
2023/05/02 05:12:28;;;;;;;;;;;18.70;65.70;;;;;;4993791;28;1907;-70
2023/05/02 05:14:53;;;;;;;;;;;18.70;65.80;;;;;;4991155;28;1268;-71
2023/05/02 05:17:19;;;;;;;;;;;18.70;65.80;;;;;;4991021;28;792;-70
2023/05/02 05:19:44;;;;;;;;;;;18.70;65.70;;;;;;4996122;28;1418;-70
2023/05/02 05:22:10;;;;;;;;;;;18.70;65.70;;;;;;4993925;28;857;-71
2023/05/02 05:24:35;;;;;;;;;;;18.70;65.90;;;;;;4994799;28;1257;-71
2023/05/02 05:27:01;;;;;;;;;;;18.70;65.80;;;;;;4991561;28;789;-70
2023/05/02 05:29:27;;;;;;;;;;;18.70;65.80;;;;;;4989137;28;2025;-70
2023/05/02 05:31:52;;;;;;;;;;;18.70;65.90;;;;;;4986250;28;2079;-72
2023/05/02 05:34:18;;;;;;;;;;;18.70;65.80;;;;;;4992525;28;1488;-70
2023/05/02 05:36:43;;;;;;;;;;;18.70;65.90;;;;;;4992902;28;1364;-70
2023/05/02 05:39:09;;;;;;;;;;;18.70;65.90;;;;;;4994185;28;1306;-70
2023/05/02 05:41:37;;;;;;;;;;;18.70;66.10;;;;;;4991357;28;891;-70
2023/05/02 05:44:02;;;;;;;;;;;18.70;66.10;;;;;;4992271;28;1269;-70
2023/05/02 05:46:27;;;;;;;;;;;18.70;66.10;;;;;;4995282;28;875;-70
2023/05/02 05:48:53;;;;;;;;;;;18.80;66.20;;;;;;4995483;28;842;-70
2023/05/02 05:51:18;;;;;;;;;;;18.80;66.10;;;;;;4992896;28;1026;-69
2023/05/02 05:53:44;;;;;;;;;;;18.70;66.10;;;;;;4991481;28;1895;-70
2023/05/02 05:56:10;;;;;;;;;;;18.80;66.20;;;;;;4995489;28;912;-70
2023/05/02 05:58:36;;;;;;;;;;;18.80;66.20;;;;;;4995246;28;873;-70
2023/05/02 06:01:01;;;;;;;;;;;18.80;66.30;;;;;;4992753;28;945;-71
2023/05/02 06:03:26;;;;;;;;;;;18.80;66.40;;;;;;4993274;28;1407;-71
2023/05/02 06:05:52;;;;;;;;;;;18.80;66.40;;;;;;4998013;28;1178;-72
2023/05/02 06:08:17;;;;;;;;;;;18.80;66.60;;;;;;4994837;28;1030;-71
2023/05/02 06:10:43;;;;;;;;;;;18.80;66.70;;;;;;4990774;28;861;-71
2023/05/02 06:13:09;;;;;;;;;;;18.80;66.70;;;;;;4991517;28;1954;-71
2023/05/02 06:15:34;;;;;;;;;;;18.80;66.90;;;;;;4991069;28;1309;-72
2023/05/02 06:18:00;;;;;;;;;;;18.80;67.00;;;;;;4988790;28;837;-71
2023/05/02 06:20:25;;;;;;;;;;;18.80;67.10;;;;;;4989125;28;1979;-67
2023/05/02 06:22:51;;;;;;;;;;;18.80;67.30;;;;;;4995627;28;1361;-68
2023/05/02 06:25:16;;;;;;;;;;;18.80;67.60;;;;;;4990823;28;1311;-69
2023/05/02 06:27:41;;;;;;;;;;;18.80;67.80;;;;;;4989443;28;998;-69
2023/05/02 06:30:07;;;;;;;;;;;18.80;68.60;;;;;;4996113;28;1136;-69
2023/05/02 06:32:33;;;;;;;;;;;18.80;68.00;;;;;;4996300;28;1910;-69
2023/05/02 06:34:58;;;;;;;;;;;18.80;68.20;;;;;;4993079;28;1398;-68
2023/05/02 06:37:24;;;;;;;;;;;18.80;68.30;;;;;;4993420;28;970;-69
2023/05/02 06:39:49;;;;;;;;;;;18.80;68.50;;;;;;4989790;28;1380;-68
2023/05/02 06:42:15;;;;;;;;;;;18.80;68.40;;;;;;4989574;28;912;-69
2023/05/02 06:44:40;;;;;;;;;;;18.80;68.50;;;;;;4992897;28;2322;-70
2023/05/02 06:47:06;;;;;;;;;;;18.80;68.60;;;;;;4992789;28;1243;-71
2023/05/02 06:49:32;;;;;;;;;;;18.80;68.60;;;;;;4991159;28;1488;-72
2023/05/02 06:51:57;;;;;;;;;;;18.80;68.70;;;;;;4995077;28;1906;-70
2023/05/02 06:54:23;;;;;;;;;;;18.80;68.60;;;;;;4994697;28;2040;-69
2023/05/02 06:56:48;;;;;;;;;;;18.80;68.60;;;;;;4998357;28;1356;-69
2023/05/02 06:59:15;;;;;;;;;;;18.80;68.60;;;;;;4998812;28;1398;-69
2023/05/02 07:01:42;;;;;;;;;;;18.80;68.60;;;;;;5001799;28;1192;-69
2023/05/02 07:04:07;;;;;;;;;;;18.80;68.50;;;;;;4995949;28;1392;-68
2023/05/02 07:06:33;;;;;;;;;;;18.80;68.60;;;;;;4996959;28;867;-69
2023/05/02 07:08:58;;;;;;;;;;;18.80;68.50;;;;;;4995595;28;879;-69
2023/05/02 07:11:25;;;;;;;;;;;18.80;68.40;;;;;;4998060;28;819;-69
2023/05/02 07:13:50;;;;;;;;;;;18.80;68.30;;;;;;4994775;28;1895;-69
2023/05/02 07:16:15;;;;;;;;;;;18.80;68.20;;;;;;4998961;28;857;-68
2023/05/02 07:18:41;;;;;;;;;;;18.80;68.10;;;;;;4994653;28;887;-69
2023/05/02 07:21:07;;;;;;;;;;;18.80;67.90;;;;;;4988413;28;2125;-69
2023/05/02 07:23:32;;;;;;;;;;;18.80;67.90;;;;;;4990473;28;1418;-69
2023/05/02 07:25:58;;;;;;;;;;;18.80;67.90;;;;;;4996765;28;1252;-69
2023/05/02 07:28:23;;;;;;;;;;;18.80;68.20;;;;;;4994591;28;914;-69
2023/05/02 07:30:49;;;;;;;;;;;18.90;68.40;;;;;;4994177;28;911;-69
2023/05/02 07:33:15;;;;;;;;;;;18.80;68.30;;;;;;4993362;28;2310;-69
2023/05/02 07:35:40;;;;;;;;;;;18.80;68.40;;;;;;4995144;28;2022;-69
2023/05/02 07:38:06;;;;;;;;;;;18.80;68.40;;;;;;4995629;28;1389;-69
2023/05/02 07:40:31;;;;;;;;;;;18.80;68.20;;;;;;4997320;28;1261;-69
2023/05/02 07:42:57;;;;;;;;;;;18.80;68.30;;;;;;4995521;28;845;-69
2023/05/02 07:45:22;;;;;;;;;;;18.80;68.50;;;;;;4998486;28;1418;-69
2023/05/02 07:47:48;;;;;;;;;;;18.80;68.50;;;;;;4994900;28;899;-69
2023/05/02 07:50:13;;;;;;;;;;;18.70;68.50;;;;;;4993282;28;1033;-69
2023/05/02 07:52:39;;;;;;;;;;;18.80;68.70;;;;;;4995646;28;1898;-69
2023/05/02 07:55:04;;;;;;;;;;;18.80;69.20;;;;;;4993135;28;1282;-69
2023/05/02 07:57:30;;;;;;;;;;;18.80;69.00;;;;;;4995368;28;1460;-69
2023/05/02 07:59:58;;;;;;;;;;;18.70;69.10;;;;;;4998778;28;847;-69
2023/05/02 08:02:24;;;;;;;;;;;18.70;69.10;;;;;;4990707;28;879;-69
2023/05/02 08:04:50;;;;;;;;;;;18.70;69.10;;;;;;4998620;28;1269;-68
2023/05/02 08:07:15;;;;;;;;;;;18.70;69.20;;;;;;4996746;28;842;-69
2023/05/02 08:09:41;;;;;;;;;;;18.70;68.90;;;;;;4995575;28;843;-69
2023/05/02 08:12:06;;;;;;;;;;;18.80;68.90;;;;;;4989728;28;1957;-69
2023/05/02 08:14:32;;;;;;;;;;;18.80;69.00;;;;;;4992668;28;1335;-70
2023/05/02 08:16:58;;;;;;;;;;;18.80;69.10;;;;;;4995776;28;903;-69
2023/05/02 08:19:23;;;;;;;;;;;18.80;69.20;;;;;;4990807;28;1003;-70
2023/05/02 08:21:49;;;;;;;;;;;18.80;69.30;;;;;;4991078;28;878;-69
2023/05/02 08:24:14;;;;;;;;;;;18.80;69.60;;;;;;4997236;28;1300;-70
2023/05/02 08:26:40;;;;;;;;;;;18.80;69.60;;;;;;4992002;28;839;-70
2023/05/02 08:29:05;;;;;;;;;;;18.80;69.70;;;;;;4990057;28;942;-70
2023/05/02 08:31:31;;;;;;;;;;;18.80;69.90;;;;;;4995635;28;929;-70
2023/05/02 08:33:56;;;;;;;;;;;18.80;70.00;;;;;;4998017;28;1898;-70
2023/05/02 08:36:22;;;;;;;;;;;18.80;70.00;;;;;;4992767;28;1956;-70
2023/05/02 08:38:48;;;;;;;;;;;18.70;69.90;;;;;;4992712;28;2082;-69
2023/05/02 08:41:15;;;;;;;;;;;18.70;70.00;;;;;;4994626;28;1532;-68
2023/05/02 08:43:41;;;;;;;;;;;18.70;70.10;;;;;;4994151;28;1260;-68
2023/05/02 08:46:07;;;;;;;;;;;18.70;70.10;;;;;;4996022;28;904;-68
2023/05/02 08:48:34;;;;;;;;;;;18.70;70.10;;;;;;4996850;28;844;-68
2023/05/02 08:51:00;;;;;;;;;;;18.70;70.10;;;;;;4992792;28;859;-69
2023/05/02 08:53:25;;;;;;;;;;;18.70;70.30;;;;;;4992591;28;1915;-69
2023/05/02 08:55:51;;;;;;;;;;;18.70;70.50;;;;;;4997954;28;1166;-67
2023/05/02 08:58:16;;;;;;;;;;;18.70;70.40;;;;;;4995718;28;908;-67
2023/05/02 09:00:42;;;;;;;;;;;18.70;70.40;;;;;;4986417;28;887;-68
2023/05/02 09:03:15;;;;;;;;;;;18.70;70.40;;;;;;4991519;28;1006;-68
2023/05/02 09:05:40;;;;;;;;;;;18.70;70.50;;;;;;4990386;28;1364;-68
2023/05/02 09:08:06;;;;;;;;;;;18.70;70.60;;;;;;4993846;28;792;-69
2023/05/02 09:10:33;;;;;;;;;;;18.70;70.50;;;;;;4989102;28;1110;-68
2023/05/02 09:13:18;;;;;;;;;;;18.70;70.50;;;;;;4992620;28;1910;-69
2023/05/02 09:15:44;;;;;;;;;;;18.70;70.50;;;;;;4990197;28;1313;-69
2023/05/02 09:18:18;;;;;;;;;;;18.70;71.10;;;;;;4995265;28;1420;-69
2023/05/02 09:20:43;;;;;;;;;;;18.70;70.50;;;;;;4996074;28;905;-69
2023/05/02 09:23:09;;;;;;;;;;;18.70;70.40;;;;;;4988490;28;896;-70
2023/05/02 09:25:35;;;;;;;;;;;18.70;70.50;;;;;;4997882;28;1354;-69
2023/05/02 09:28:00;;;;;;;;;;;18.70;70.50;;;;;;4997885;28;986;-69
2023/05/02 09:30:26;;;;;;;;;;;18.70;70.40;;;;;;5000656;28;1199;-69
2023/05/02 09:32:54;;;;;;;;;;;18.70;70.30;;;;;;4992551;28;2005;-69
2023/05/02 09:35:25;;;;;;;;;;;18.70;70.20;;;;;;4993923;28;1370;-69
2023/05/02 09:37:51;;;;;;;;;;;18.70;70.10;;;;;;4994831;28;1530;-69
2023/05/02 09:40:17;;;;;;;;;;;18.70;70.20;;;;;;4996365;28;1285;-69
2023/05/02 09:42:42;;;;;;;;;;;18.70;70.20;;;;;;4993054;28;892;-69
2023/05/02 09:45:08;;;;;;;;;;;18.70;70.00;;;;;;4993924;28;1276;-69
2023/05/02 09:47:33;;;;;;;;;;;18.70;70.10;;;;;;4993558;28;842;-70
2023/05/02 09:49:59;;;;;;;;;;;18.70;70.20;;;;;;4997073;28;833;-70
2023/05/02 09:52:24;;;;;;;;;;;18.70;70.20;;;;;;4993518;28;1973;-70
2023/05/02 09:54:51;;;;;;;;;;;18.60;70.10;;;;;;4991814;28;1266;-69
2023/05/02 09:57:16;;;;;;;;;;;18.70;70.20;;;;;;4995671;28;832;-68
2023/05/02 09:59:52;;;;;;;;;;;18.70;70.50;;;;;;4994745;28;894;-69
2023/05/02 10:02:17;;;;;;;;;;;18.70;70.30;;;;;;4995797;28;1264;-69
2023/05/02 10:04:43;;;;;;;;;;;18.70;70.20;;;;;;4992995;28;1753;-69
2023/05/02 10:07:09;;;;;;;;;;;18.70;70.30;;;;;;4977202;28;796;-69
2023/05/02 10:09:34;;;;;;;;;;;18.70;70.40;;;;;;4993244;28;847;-69
2023/05/02 10:12:03;;;;;;;;;;;18.70;70.40;;;;;;4991857;28;1906;-69
2023/05/02 10:14:29;;;;;;;;;;;18.70;70.50;;;;;;4993934;28;1267;-69
2023/05/02 10:17:04;;;;;;;;;;;18.70;70.50;;;;;;4994327;28;960;-70
2023/05/02 10:19:32;;;;;;;;;;;18.70;70.50;;;;;;4992229;28;867;-70
2023/05/02 10:21:58;;;;;;;;;;;18.70;70.40;;;;;;4992695;28;819;-70
2023/05/02 10:24:24;;;;;;;;;;;18.70;70.40;;;;;;4993811;28;1264;-70
2023/05/02 10:26:49;;;;;;;;;;;18.70;70.40;;;;;;4997715;28;809;-70
2023/05/02 10:29:15;;;;;;;;;;;18.70;70.60;;;;;;5000575;28;942;-70
2023/05/02 10:31:41;;;;;;;;;;;18.70;70.50;;;;;;4997731;28;809;-70
2023/05/02 10:34:09;;;;;;;;;;;18.70;70.40;;;;;;4994722;28;1911;-69
2023/05/02 10:36:35;;;;;;;;;;;18.70;70.40;;;;;;4994837;28;935;-69
2023/05/02 10:39:00;;;;;;;;;;;18.70;70.30;;;;;;4999738;28;1273;-69
2023/05/02 10:41:26;;;;;;;;;;;18.70;70.30;;;;;;4995202;28;888;-69
2023/05/02 10:43:52;;;;;;;;;;;18.70;70.20;;;;;;4998346;28;1287;-69
2023/05/02 10:46:36;;;;;;;;;;;18.70;70.10;;;;;;4994151;28;908;-70
2023/05/02 10:49:05;;;;;;;;;;;18.70;70.10;;;;;;5001139;28;920;-70
2023/05/02 10:51:30;;;;;;;;;;;18.70;70.10;;;;;;4998822;28;871;-70
2023/05/02 10:54:32;;;;;;;;;;;18.70;70.10;;;;;;4995140;28;1914;-70
2023/05/02 10:57:04;;;;;;;;;;;18.70;70.10;;;;;;4997396;28;1425;-69
2023/05/02 10:59:33;;;;;;;;;;;18.70;70.10;;;;;;4989926;28;1291;-69
2023/05/02 11:02:00;;;;;;;;;;;18.70;70.10;;;;;;4983452;28;1163;-70
2023/05/02 11:04:26;;;;;;;;;;;18.70;70.50;;;;;;4995681;28;1366;-70
2023/05/02 11:06:58;;;;;;;;;;;18.70;70.60;;;;;;4989371;28;887;-70
2023/05/02 11:09:23;;;;;;;;;;;18.70;69.20;;;;;;4996792;28;825;-70
2023/05/02 11:11:51;;;;;;;;;;;18.70;67.80;;;;;;4999042;28;967;-69
2023/05/02 11:14:26;;;;;;;;;;;18.60;66.80;;;;;;4995674;28;1910;-69
2023/05/02 11:17:03;;;;;;;;;;;18.60;65.90;;;;;;4996785;28;922;-70
2023/05/02 11:19:29;;;;;;;;;;;18.60;65.70;;;;;;4983354;28;1621;-70
2023/05/02 11:22:13;;;;;;;;;;;18.50;64.90;;;;;;4997191;28;804;-70
2023/05/02 11:24:39;;;;;;;;;;;18.50;64.60;;;;;;4990443;28;1629;-69
2023/05/02 11:27:23;;;;;;;;;;;18.40;64.30;;;;;;4996183;28;880;-68
2023/05/02 11:29:52;;;;;;;;;;;18.40;64.00;;;;;;4995511;28;884;-69
2023/05/02 11:32:18;;;;;;;;;;;18.40;63.80;;;;;;4994929;28;1918;-69
2023/05/02 11:34:43;;;;;;;;;;;18.40;63.40;;;;;;4991301;28;1973;-69
2023/05/02 11:37:10;;;;;;;;;;;18.30;63.20;;;;;;4991953;28;1288;-69
2023/05/02 11:39:35;;;;;;;;;;;18.30;63.00;;;;;;4994796;28;1050;-70
2023/05/02 11:42:01;;;;;;;;;;;18.30;62.90;;;;;;4992416;28;935;-69
2023/05/02 11:44:27;;;;;;;;;;;18.30;62.50;;;;;;4996080;28;1721;-69
2023/05/02 11:46:52;;;;;;;;;;;18.30;62.40;;;;;;4999272;28;1581;-69
2023/05/02 11:49:18;;;;;;;;;;;18.20;62.30;;;;;;4994210;28;792;-69
2023/05/02 11:51:43;;;;;;;;;;;18.20;62.20;;;;;;4994443;28;934;-69
2023/05/02 11:54:09;;;;;;;;;;;18.20;62.40;;;;;;4994163;28;1948;-69
2023/05/02 11:56:34;;;;;;;;;;;18.20;62.30;;;;;;4997895;28;1349;-69
2023/05/02 11:59:00;;;;;;;;;;;18.20;62.70;;;;;;5000530;28;804;-69
2023/05/02 12:01:26;;;;;;;;;;;18.20;62.30;;;;;;4995565;28;887;-69
2023/05/02 12:04:05;;;;;;;;;;;18.20;62.20;;;;;;4994798;28;1285;-69
2023/05/02 12:06:31;;;;;;;;;;;18.20;61.70;;;;;;4997234;28;955;-69
2023/05/02 12:09:06;;;;;;;;;;;18.10;62.00;;;;;;4988958;28;894;-70
2023/05/02 12:11:32;;;;;;;;;;;18.20;62.10;;;;;;4995849;28;839;-69
2023/05/02 12:13:57;;;;;;;;;;;18.10;62.20;;;;;;4992820;28;1914;-69
2023/05/02 12:16:23;;;;;;;;;;;18.10;61.70;;;;;;4994064;28;801;-70
2023/05/02 12:18:48;;;;;;;;;;;18.10;61.70;;;;;;4994511;28;892;-69
2023/05/02 12:21:14;;;;;;;;;;;18.10;61.70;;;;;;4993411;28;829;-69
2023/05/02 12:23:40;;;;;;;;;;;18.10;61.60;;;;;;4994672;28;1256;-69
2023/05/02 12:26:16;;;;;;;;;;;18.10;62.50;;;;;;4978583;28;1223;-70
2023/05/02 12:28:51;;;;;;;;;;;18.10;62.00;;;;;;4993386;28;813;-69
2023/05/02 12:31:16;;;;;;;;;;;18.10;61.30;;;;;;4995275;28;797;-68
2023/05/02 12:33:42;;;;;;;;;;;18.10;62.20;;;;;;4989184;28;1964;-70
2023/05/02 12:36:08;;;;;;;;;;;18.10;61.80;;;;;;4991488;28;996;-69
2023/05/02 12:38:34;;;;;;;;;;;18.00;61.60;;;;;;4995557;28;1309;-68
2023/05/02 12:41:00;;;;;;;;;;;18.00;61.60;;;;;;4994710;28;1342;-71
2023/05/02 12:43:25;;;;;;;;;;;18.00;62.00;;;;;;4991606;28;1337;-69
2023/05/02 12:45:53;;;;;;;;;;;18.00;61.60;;;;;;4996147;28;1345;-69
2023/05/02 12:48:25;;;;;;;;;;;18.00;61.60;;;;;;4993446;28;1439;-68
2023/05/02 12:50:51;;;;;;;;;;;18.00;60.70;;;;;;4996431;28;1445;-68
2023/05/02 12:53:16;;;;;;;;;;;18.00;60.90;;;;;;4991083;28;1966;-69
2023/05/02 12:55:42;;;;;;;;;;;18.00;60.60;;;;;;4990268;28;1413;-68
2023/05/02 12:58:08;;;;;;;;;;;18.00;60.70;;;;;;4993128;28;1344;-69
2023/05/02 13:00:35;;;;;;;;;;;18.00;61.30;;;;;;4991631;28;1337;-69
2023/05/02 13:03:00;;;;;;;;;;;18.00;60.70;;;;;;4992027;28;1496;-69
2023/05/02 13:05:26;;;;;;;;;;;18.10;60.50;;;;;;4992380;28;1337;-69
2023/05/02 13:07:58;;;;;;;;;;;18.00;59.90;;;;;;5077993;27;1255;-69
2023/05/02 13:10:24;;;;;;;;;;;18.10;59.60;;;;;;5077210;28;1588;-68
2023/05/02 13:12:50;;;;;;;;;;;18.10;60.50;;;;;;5074401;28;1497;-68
2023/05/02 13:15:16;;;;;;;;;;;18.10;59.20;;;;;;5100418;28;1398;-69
2023/05/02 13:17:41;;;;;;;;;;;18.10;59.80;;;;;;5067361;28;907;-68
2023/05/02 13:20:08;;;;;;;;;;;18.10;59.10;;;;;;5099729;28;836;-68
2023/05/02 13:22:33;;;;;;;;;;;18.20;58.80;;;;;;5067292;28;837;-68
2023/05/02 13:24:59;;;;;;;;;;;18.20;58.50;;;;;;5066819;28;1294;-68
2023/05/02 13:27:25;;;;;;;;;;;18.20;59.00;;;;;;5066868;28;2024;-68
2023/05/02 13:29:50;;;;;;;;;;;18.20;58.80;;;;;;5065741;28;1061;-68
2023/05/02 13:32:15;;;;;;;;;;;18.20;58.20;;;;;;5067097;28;894;-67
2023/05/02 13:34:41;;;;;;;;;;;18.30;58.60;;;;;;5066990;28;1277;-67
2023/05/02 13:37:07;;;;;;;;;;;18.30;57.60;;;;;;5099466;28;981;-67
2023/05/02 13:39:32;;;;;;;;;;;18.30;57.60;;;;;;5066746;28;1201;-68
2023/05/02 13:41:58;;;;;;;;;;;18.30;57.60;;;;;;5065999;28;816;-68
2023/05/02 13:44:23;;;;;;;;;;;18.30;57.70;;;;;;5098286;28;1248;-68
2023/05/02 13:46:49;;;;;;;;;;;18.30;57.20;;;;;;5066595;28;1973;-69
2023/05/02 13:49:14;;;;;;;;;;;18.40;58.00;;;;;;5099340;28;867;-68
2023/05/02 13:51:40;;;;;;;;;;;18.30;58.50;;;;;;5099056;28;1377;-68
2023/05/02 13:54:05;;;;;;;;;;;18.40;58.20;;;;;;5066378;28;1343;-68
2023/05/02 13:56:31;;;;;;;;;;;18.40;56.80;;;;;;5066310;28;1605;-68
2023/05/02 13:58:56;;;;;;;;;;;18.40;57.60;;;;;;5066280;28;796;-68
2023/05/02 14:01:22;;;;;;;;;;;18.40;57.90;;;;;;5066346;28;1042;-68
2023/05/02 14:03:47;;;;;;;;;;;18.40;57.00;;;;;;5066592;28;1339;-68
2023/05/02 14:06:13;;;;;;;;;;;18.40;58.00;;;;;;5066593;28;1976;-68
2023/05/02 14:08:38;;;;;;;;;;;18.40;56.30;;;;;;5066856;28;915;-68
2023/05/02 14:11:04;;;;;;;;;;;18.40;57.10;;;;;;5067146;28;899;-68
2023/05/02 14:13:29;;;;;;;;;;;18.40;56.80;;;;;;5065966;28;875;-68
2023/05/02 14:15:55;;;;;;;;;;;18.40;56.20;;;;;;5065958;28;1303;-68
2023/05/02 14:18:20;;;;;;;;;;;18.40;56.60;;;;;;5058245;28;868;-68
2023/05/02 14:20:46;;;;;;;;;;;18.40;57.30;;;;;;5052971;28;843;-68
2023/05/02 14:23:11;;;;;;;;;;;18.40;56.70;;;;;;5052830;28;1042;-68
2023/05/02 14:25:36;;;;;;;;;;;18.40;57.00;;;;;;5052383;28;1910;-68
2023/05/02 14:28:02;;;;;;;;;;;18.40;55.90;;;;;;5052935;28;957;-68
2023/05/02 14:30:28;;;;;;;;;;;18.40;57.20;;;;;;5052953;28;883;-68
2023/05/02 14:32:53;;;;;;;;;;;18.40;57.50;;;;;;5052657;28;824;-68